Time;durP1;ratioP1;P1;durP2;ratioP2;P2;SDS_P1;SDS_P2;PMS_P1;PMS_P2;Temp;Humidity;BMP_temperature;BMP_pressure;BME280_temperature;BME280_humidity;BME280_pressure;Samples;Min_cycle;Max_cycle;Signal;HPM_P1;HPM_P2
2023/10/18 00:01:09;;;;;;;15.18;9.52;;;3.70;99.90;;;;;;5041493;28;20119;-39
2023/10/18 00:03:37;;;;;;;15.35;9.60;;;3.70;99.90;;;;;;5046350;28;20514;-40
2023/10/18 00:06:16;;;;;;;13.77;9.57;;;3.60;99.90;;;;;;5045447;28;20061;-39
2023/10/18 00:08:47;;;;;;;13.13;8.80;;;3.60;99.90;;;;;;5046894;28;20112;-41
2023/10/18 00:11:15;;;;;;;18.70;9.57;;;3.60;99.90;;;;;;5045737;28;20395;-41
2023/10/18 00:13:45;;;;;;;11.75;8.07;;;3.50;99.90;;;;;;5044412;28;20052;-41
2023/10/18 00:16:12;;;;;;;15.02;9.43;;;3.50;99.90;;;;;;5042064;28;20502;-41
2023/10/18 00:18:40;;;;;;;14.15;8.60;;;3.50;99.90;;;;;;5046078;28;20052;-40
2023/10/18 00:21:07;;;;;;;12.52;8.88;;;3.60;99.90;;;;;;5044645;28;20037;-42
2023/10/18 00:23:35;;;;;;;14.05;9.10;;;3.60;99.90;;;;;;5045549;28;20056;-40
2023/10/18 00:26:07;;;;;;;16.08;8.98;;;3.60;99.90;;;;;;5048274;28;20420;-41
2023/10/18 00:28:37;;;;;;;12.75;8.32;;;3.70;99.90;;;;;;5055128;28;20104;-41
2023/10/18 00:31:12;;;;;;;10.25;8.00;;;3.70;99.90;;;;;;5050697;28;20084;-40
2023/10/18 00:33:40;;;;;;;16.60;9.85;;;3.70;99.90;;;;;;5042481;28;20040;-40
2023/10/18 00:36:10;;;;;;;11.40;8.70;;;3.80;99.90;;;;;;5049212;28;20037;-42
2023/10/18 00:38:41;;;;;;;16.88;9.23;;;3.80;99.90;;;;;;5053953;28;20045;-46
2023/10/18 00:41:14;;;;;;;10.77;8.10;;;3.80;99.90;;;;;;5050762;28;20064;-40
2023/10/18 00:43:45;;;;;;;13.93;8.60;;;3.80;99.90;;;;;;5044405;28;20044;-40
2023/10/18 00:46:16;;;;;;;15.47;9.13;;;3.80;99.90;;;;;;5042501;28;20067;-39
2023/10/18 00:48:45;;;;;;;14.07;8.50;;;3.90;99.90;;;;;;5044264;28;20303;-39
2023/10/18 00:51:17;;;;;;;12.32;8.95;;;3.90;99.90;;;;;;5043511;28;20071;-40
2023/10/18 00:53:48;;;;;;;13.07;8.73;;;3.90;99.90;;;;;;5042885;28;20073;-40
2023/10/18 00:56:16;;;;;;;15.10;9.20;;;3.90;99.90;;;;;;5047117;28;20057;-41
2023/10/18 00:58:47;;;;;;;15.10;8.88;;;3.90;99.90;;;;;;5044481;28;20045;-40
2023/10/18 01:01:17;;;;;;;16.50;8.95;;;3.80;99.90;;;;;;5046839;28;20057;-40
2023/10/18 01:03:46;;;;;;;15.25;8.82;;;3.90;99.90;;;;;;5051635;28;20053;-40
2023/10/18 01:06:21;;;;;;;13.60;8.93;;;3.80;99.90;;;;;;5045541;28;20041;-40
2023/10/18 01:08:49;;;;;;;14.95;9.05;;;3.80;99.90;;;;;;5047846;28;20055;-39
2023/10/18 01:11:30;;;;;;;12.65;8.27;;;3.80;99.90;;;;;;5044382;28;20056;-41
2023/10/18 01:14:00;;;;;;;13.25;9.68;;;3.80;99.90;;;;;;5041618;28;20064;-41
2023/10/18 01:16:34;;;;;;;13.93;9.57;;;3.80;99.90;;;;;;5045897;28;20127;-41
2023/10/18 01:19:08;;;;;;;16.95;9.75;;;3.70;99.90;;;;;;5041553;28;20071;-42
2023/10/18 01:21:36;;;;;;;11.15;8.75;;;3.70;99.90;;;;;;5047587;28;20052;-39
2023/10/18 01:24:05;;;;;;;17.20;9.73;;;3.70;99.90;;;;;;5052451;28;20052;-40
2023/10/18 01:26:32;;;;;;;14.00;8.85;;;3.70;99.90;;;;;;5052333;28;20056;-41
2023/10/18 01:29:08;;;;;;;12.30;8.98;;;3.70;99.90;;;;;;5042857;28;20041;-41
2023/10/18 01:31:37;;;;;;;12.10;8.77;;;3.70;99.90;;;;;;5038981;28;20045;-41
2023/10/18 01:34:04;;;;;;;14.73;9.55;;;3.70;99.90;;;;;;5040191;28;20514;-40
2023/10/18 01:36:32;;;;;;;14.57;9.00;;;3.70;99.90;;;;;;5041675;28;20060;-41
2023/10/18 01:38:59;;;;;;;17.05;9.35;;;3.70;99.90;;;;;;5044249;28;20053;-42
2023/10/18 01:44:07;;;;;;;14.57;9.27;;;3.60;99.90;;;;;;5040545;28;20040;-40
2023/10/18 01:46:45;;;;;;;13.30;9.30;;;3.60;99.90;;;;;;5044033;28;20053;-40
2023/10/18 01:49:16;;;;;;;14.23;9.40;;;3.60;99.90;;;;;;5037702;28;20123;-40
2023/10/18 01:51:47;;;;;;;13.07;8.85;;;3.60;99.90;;;;;;5048287;28;20124;-40
2023/10/18 01:54:15;;;;;;;14.93;9.40;;;3.60;99.90;;;;;;5042511;28;20501;-41
2023/10/18 01:56:46;;;;;;;12.15;8.38;;;3.60;99.90;;;;;;5042568;28;20095;-40
2023/10/18 01:59:16;;;;;;;13.55;8.93;;;3.60;99.90;;;;;;5040002;28;20052;-39
2023/10/18 02:02:10;;;;;;;15.15;9.13;;;3.60;99.90;;;;;;5041643;28;20107;-40
2023/10/18 02:04:41;;;;;;;18.77;10.18;;;3.60;99.90;;;;;;5045896;28;20044;-39
2023/10/18 02:07:20;;;;;;;15.90;9.43;;;3.60;99.90;;;;;;5057379;28;20139;-40
2023/10/18 02:09:48;;;;;;;14.52;9.52;;;3.60;99.90;;;;;;5044463;28;20045;-37
2023/10/18 02:12:19;;;;;;;17.08;9.73;;;3.50;99.90;;;;;;5040202;28;20097;-41
2023/10/18 02:14:49;;;;;;;14.63;9.55;;;3.50;99.90;;;;;;5040684;28;20052;-38
2023/10/18 02:17:21;;;;;;;14.55;9.57;;;3.50;99.90;;;;;;5039729;28;20060;-42
2023/10/18 02:19:49;;;;;;;16.05;9.98;;;3.50;99.90;;;;;;5052210;28;20045;-41
2023/10/18 02:22:16;;;;;;;14.52;10.05;;;3.40;99.90;;;;;;5041249;28;20494;-38
2023/10/18 02:24:44;;;;;;;14.50;10.27;;;3.50;99.90;;;;;;5043448;28;20048;-40
2023/10/18 02:27:19;;;;;;;14.40;10.57;;;3.50;99.90;;;;;;5036885;28;20041;-41
2023/10/18 02:29:47;;;;;;;14.23;9.95;;;3.50;99.90;;;;;;5041192;28;20037;-39
2023/10/18 02:32:32;;;;;;;17.60;10.60;;;3.50;99.90;;;;;;5040258;28;20045;-41
2023/10/18 02:35:04;;;;;;;14.85;10.18;;;3.40;99.90;;;;;;5039613;28;20037;-40
2023/10/18 02:37:32;;;;;;;14.07;10.32;;;3.40;99.90;;;;;;5044100;28;20160;-41
2023/10/18 02:40:08;;;;;;;15.68;10.10;;;3.40;99.90;;;;;;5041938;28;20065;-38
2023/10/18 02:42:37;;;;;;;15.38;9.50;;;3.40;99.90;;;;;;5040420;28;20060;-39
2023/10/18 02:45:12;;;;;;;14.77;9.35;;;3.40;99.90;;;;;;5041924;28;20536;-40
2023/10/18 02:47:40;;;;;;;18.20;10.00;;;3.40;99.90;;;;;;5046618;28;20557;-41
2023/10/18 02:50:08;;;;;;;14.85;9.90;;;3.40;99.90;;;;;;5041681;28;20081;-42
2023/10/18 02:52:35;;;;;;;16.05;9.18;;;3.40;99.90;;;;;;5044467;28;20068;-40
2023/10/18 02:55:08;;;;;;;15.52;9.48;;;3.40;99.90;;;;;;5041765;28;20041;-40
2023/10/18 02:57:36;;;;;;;14.50;9.43;;;3.40;99.90;;;;;;5040905;28;20498;-42
2023/10/18 03:00:10;;;;;;;14.93;9.70;;;3.40;99.90;;;;;;5046018;28;20067;-40
2023/10/18 03:02:38;;;;;;;13.43;9.50;;;3.40;99.90;;;;;;5047108;28;20105;-40
2023/10/18 03:05:06;;;;;;;14.32;10.35;;;3.40;99.90;;;;;;5055050;28;20099;-42
2023/10/18 03:07:35;;;;;;;14.35;10.23;;;3.30;99.90;;;;;;5061033;28;20469;-41
2023/10/18 03:10:11;;;;;;;17.23;10.50;;;3.30;99.90;;;;;;5050855;28;20049;-41
2023/10/18 03:12:44;;;;;;;16.02;9.48;;;3.30;99.90;;;;;;5041690;28;20505;-41
2023/10/18 03:15:17;;;;;;;18.27;10.77;;;3.30;99.90;;;;;;5044763;28;20045;-41
2023/10/18 03:17:48;;;;;;;14.45;9.55;;;3.20;99.90;;;;;;5048609;28;20057;-42
2023/10/18 03:20:20;;;;;;;17.17;10.52;;;3.20;99.90;;;;;;5049073;28;20079;-40
2023/10/18 03:22:49;;;;;;;17.13;10.18;;;3.20;99.90;;;;;;5069320;28;20079;-42
2023/10/18 03:25:17;;;;;;;14.23;9.90;;;3.20;99.90;;;;;;5056741;28;20175;-41
2023/10/18 03:27:57;;;;;;;18.00;10.27;;;3.20;99.90;;;;;;5049899;28;20541;-41
2023/10/18 03:30:40;;;;;;;17.50;10.43;;;3.20;99.90;;;;;;5053037;28;20584;-42
2023/10/18 03:33:07;;;;;;;17.08;10.80;;;3.10;99.90;;;;;;5046588;28;20056;-41
2023/10/18 03:35:39;;;;;;;18.20;10.02;;;3.20;99.90;;;;;;5048094;28;20041;-42
2023/10/18 03:38:17;;;;;;;14.25;9.70;;;3.20;99.90;;;;;;5047656;28;20045;-41
2023/10/18 03:40:56;;;;;;;13.70;9.95;;;3.30;99.90;;;;;;5045239;28;20055;-39
2023/10/18 03:43:31;;;;;;;15.88;10.05;;;3.30;99.90;;;;;;5048108;28;20114;-39
2023/10/18 03:46:29;;;;;;;15.43;9.80;;;3.30;99.90;;;;;;5048792;28;20051;-40
2023/10/18 03:49:01;;;;;;;16.45;10.00;;;3.30;99.90;;;;;;5046202;28;20125;-38
2023/10/18 03:51:30;;;;;;;17.80;10.68;;;3.30;99.90;;;;;;5059272;28;20063;-41
2023/10/18 03:54:00;;;;;;;15.73;10.25;;;3.30;99.90;;;;;;5053083;28;20067;-41
2023/10/18 03:56:32;;;;;;;15.55;10.32;;;3.30;99.90;;;;;;5054710;28;20053;-41
2023/10/18 04:02:15;;;;;;;14.27;9.95;;;3.20;99.90;;;;;;5056601;28;20055;-40
2023/10/18 04:04:37;;;;;;;16.23;10.05;;;3.20;99.90;;;;;;5059769;28;20071;-41
2023/10/18 04:07:16;;;;;;;16.10;11.23;;;3.30;99.90;;;;;;5058568;28;20049;-38
2023/10/18 04:10:06;;;;;;;17.25;11.25;;;3.30;99.90;;;;;;5055249;28;20460;-41
2023/10/18 04:12:34;;;;;;;16.50;10.48;;;3.20;99.90;;;;;;5052970;28;20100;-45
2023/10/18 04:15:12;;;;;;;17.60;10.55;;;3.20;99.90;;;;;;5055707;28;20055;-41
2023/10/18 04:17:39;;;;;;;20.52;11.15;;;3.30;99.90;;;;;;5061314;28;20055;-42
2023/10/18 04:20:23;;;;;;;18.35;11.48;;;3.30;99.90;;;;;;5064330;28;20057;-39
2023/10/18 04:22:51;;;;;;;16.35;11.10;;;3.20;99.90;;;;;;5059865;28;20373;-48
2023/10/18 04:25:29;;;;;;;17.48;11.23;;;3.20;99.90;;;;;;5058464;28;20587;-41
2023/10/18 04:28:00;;;;;;;19.42;11.40;;;3.20;99.90;;;;;;5046351;28;20061;-42
2023/10/18 04:30:31;;;;;;;18.63;11.88;;;3.30;99.90;;;;;;5043972;28;20518;-41
2023/10/18 04:33:00;;;;;;;17.00;12.00;;;3.30;99.90;;;;;;5045353;28;20051;-41
2023/10/18 04:35:33;;;;;;;22.90;12.10;;;3.30;99.90;;;;;;5049925;28;20033;-41
2023/10/18 04:38:21;;;;;;;17.83;11.52;;;3.30;99.90;;;;;;5046480;28;20561;-40
2023/10/18 04:41:01;;;;;;;17.05;11.75;;;3.30;99.90;;;;;;5036603;28;20045;-40
2023/10/18 04:43:32;;;;;;;18.45;12.65;;;3.30;99.90;;;;;;5050635;28;20561;-42
2023/10/18 04:46:04;;;;;;;20.00;11.68;;;3.30;99.90;;;;;;5051096;28;20051;-41
2023/10/18 04:54:11;;;;;;;18.85;11.40;;;3.20;99.90;;;;;;5015752;28;20192;-40
2023/10/18 04:56:39;;;;;;;15.65;10.60;;;3.20;99.90;;;;;;5020708;28;20060;-39
2023/10/18 05:04:32;;;;;;;19.80;12.40;;;3.20;99.90;;;;;;5033053;28;20077;-46
2023/10/18 05:09:41;;;;;;;18.08;12.20;;;3.20;99.90;;;;;;5014785;28;20069;-41
2023/10/18 05:17:30;;;;;;;20.10;13.00;;;3.20;99.90;;;;;;5018711;28;20128;-40
2023/10/18 05:19:58;;;;;;;19.92;12.18;;;3.10;99.90;;;;;;5009253;28;20061;-40
2023/10/18 05:22:25;;;;;;;17.77;11.70;;;3.10;99.90;;;;;;5008505;28;20058;-40
2023/10/18 05:28:02;;;;;;;16.92;11.75;;;3.20;99.90;;;;;;5042437;28;20183;-39
2023/10/18 05:33:47;;;;;;;18.90;12.30;;;3.20;99.90;;;;;;5040169;28;20041;-39
2023/10/18 05:41:45;;;;;;;18.20;11.30;;;3.20;99.90;;;;;;5037822;28;20041;-37
2023/10/18 05:44:13;;;;;;;19.38;12.15;;;3.20;99.90;;;;;;5041029;28;20168;-40
2023/10/18 05:46:41;;;;;;;18.98;11.45;;;3.20;99.90;;;;;;5044522;28;20056;-42
2023/10/18 05:49:23;;;;;;;19.50;11.88;;;3.20;99.90;;;;;;5040728;28;20462;-39
2023/10/18 05:54:39;;;;;;;21.60;11.63;;;3.20;99.90;;;;;;5042791;28;20041;-39
2023/10/18 05:57:08;;;;;;;22.08;12.68;;;3.20;99.90;;;;;;5039860;28;20067;-40
2023/10/18 05:59:35;;;;;;;20.27;12.02;;;3.20;99.90;;;;;;5047491;28;20037;-41
2023/10/18 06:02:23;;;;;;;19.52;11.82;;;3.30;99.90;;;;;;5037054;28;20938;-39
2023/10/18 06:04:51;;;;;;;20.48;12.05;;;3.30;99.90;;;;;;5038867;28;20106;-39
2023/10/18 06:07:23;;;;;;;23.30;12.52;;;3.40;99.90;;;;;;5044620;28;20508;-41
2023/10/18 06:12:27;;;;;;;22.92;12.52;;;3.50;99.90;;;;;;5040179;28;20063;-39
2023/10/18 06:14:57;;;;;;;18.63;11.60;;;3.60;99.90;;;;;;5045071;28;20071;-41
2023/10/18 06:18:09;;;;;;;20.10;11.30;;;3.60;99.90;;;;;;5041119;28;20057;-39
2023/10/18 06:20:28;;;;;;;17.77;11.40;;;3.70;99.90;;;;;;5042500;28;20419;-38
2023/10/18 06:23:09;;;;;;;19.95;12.02;;;3.80;99.90;;;;;;5040668;28;20083;-37
2023/10/18 06:25:38;;;;;;;19.50;12.10;;;3.90;99.90;;;;;;5042779;28;20072;-38
2023/10/18 06:28:07;;;;;;;18.92;12.40;;;3.90;99.90;;;;;;5042526;28;20045;-38
2023/10/18 06:30:39;;;;;;;18.60;12.38;;;3.90;99.90;;;;;;5042236;28;20110;-37
2023/10/18 06:33:08;;;;;;;18.10;12.23;;;4.00;99.90;;;;;;5041444;28;20041;-40
2023/10/18 06:35:51;;;;;;;22.77;12.35;;;4.00;99.90;;;;;;5041706;28;20134;-38
2023/10/18 06:38:22;;;;;;;23.30;13.13;;;4.10;99.90;;;;;;5038974;28;20080;-39
2023/10/18 06:40:53;;;;;;;20.13;12.32;;;4.20;99.90;;;;;;5043511;28;20061;-39
2023/10/18 06:43:25;;;;;;;25.35;12.40;;;4.20;99.90;;;;;;5043646;28;20103;-37
2023/10/18 06:45:57;;;;;;;18.73;12.60;;;4.20;99.90;;;;;;5040440;28;20052;-39
2023/10/18 06:48:28;;;;;;;20.27;11.88;;;4.30;99.90;;;;;;5041588;28;20445;-40
2023/10/18 06:50:57;;;;;;;18.85;11.90;;;4.40;99.90;;;;;;5042853;28;20045;-39
2023/10/18 06:53:29;;;;;;;21.98;12.90;;;4.50;99.90;;;;;;5043547;28;20073;-41
2023/10/18 06:55:58;;;;;;;19.85;11.75;;;4.60;99.90;;;;;;5048184;28;20064;-39
2023/10/18 07:01:30;;;;;;;19.92;12.05;;;4.80;99.90;;;;;;5042528;28;20049;-41
2023/10/18 07:04:00;;;;;;;18.55;12.80;;;4.90;99.90;;;;;;5036655;28;20550;-39
2023/10/18 07:06:35;;;;;;;21.88;13.00;;;4.90;99.90;;;;;;5052322;28;20060;-39
2023/10/18 07:09:24;;;;;;;23.60;14.55;;;4.90;99.90;;;;;;5053079;28;20037;-39
2023/10/18 07:11:57;;;;;;;24.55;12.77;;;5.00;99.90;;;;;;5042239;28;20061;-42
2023/10/18 07:14:24;;;;;;;20.67;12.88;;;5.10;99.90;;;;;;5039169;28;20123;-38
2023/10/18 07:16:55;;;;;;;24.27;12.10;;;5.20;99.90;;;;;;5034109;28;20041;-38
2023/10/18 07:19:47;;;;;;;22.92;13.63;;;5.20;99.90;;;;;;5040225;28;20072;-37
2023/10/18 07:22:18;;;;;;;;;;;5.30;99.90;;;;;;5037185;28;20072;-39
2023/10/18 07:24:51;;;;;;;19.33;11.75;;;5.40;99.90;;;;;;5043033;28;19932;-39
2023/10/18 07:27:19;;;;;;;19.48;12.43;;;5.60;99.90;;;;;;5042455;28;20057;-40
2023/10/18 07:29:48;;;;;;;17.73;11.52;;;5.60;99.90;;;;;;5050808;28;20136;-40
2023/10/18 07:32:20;;;;;;;16.23;12.00;;;5.70;99.90;;;;;;5056612;28;20110;-40
2023/10/18 07:34:48;;;;;;;17.80;12.23;;;5.80;99.90;;;;;;5050234;28;20079;-42
2023/10/18 07:37:23;;;;;;;18.25;11.98;;;5.80;99.90;;;;;;5054352;28;20157;-37
2023/10/18 07:40:04;;;;;;;16.95;11.90;;;5.90;99.90;;;;;;5044686;28;20044;-44
2023/10/18 07:42:34;;;;;;;19.33;12.25;;;6.10;99.90;;;;;;5050290;28;20111;-38
2023/10/18 07:45:04;;;;;;;20.25;12.70;;;6.20;99.90;;;;;;5041710;28;20079;-37
2023/10/18 07:47:37;;;;;;;18.30;12.38;;;6.30;99.90;;;;;;5044611;28;20045;-40
2023/10/18 07:52:55;;;;;;;18.45;12.38;;;6.40;99.90;;;;;;5037604;28;20057;-40
2023/10/18 07:55:23;;;;;;;17.80;12.15;;;6.50;99.90;;;;;;5041482;28;20045;-39
2023/10/18 07:57:51;;;;;;;18.85;12.32;;;6.60;99.90;;;;;;5032579;28;20510;-41
2023/10/18 08:00:21;;;;;;;25.33;15.65;;;6.80;99.90;;;;;;5036632;28;20529;-40
2023/10/18 08:02:52;;;;;;;16.52;12.60;;;6.90;99.90;;;;;;5042607;28;20053;-38
2023/10/18 08:05:30;;;;;;;22.38;14.00;;;6.90;99.90;;;;;;5037765;28;20238;-44
2023/10/18 08:08:03;;;;;;;20.42;13.27;;;6.90;99.90;;;;;;5043349;28;20118;-39
2023/10/18 08:10:33;;;;;;;18.88;12.85;;;7.00;99.90;;;;;;5044999;28;20042;-41
2023/10/18 08:13:09;;;;;;;16.50;12.70;;;7.20;99.90;;;;;;5044552;28;20039;-42
2023/10/18 08:15:37;;;;;;;19.30;12.70;;;7.20;99.90;;;;;;5045523;28;20559;-38
2023/10/18 08:18:17;;;;;;;17.15;12.32;;;7.20;99.90;;;;;;5043429;28;20051;-41
2023/10/18 08:25:51;;;;;;;15.73;11.60;;;7.60;99.90;;;;;;5047910;28;20048;-38
2023/10/18 08:28:19;;;;;;;15.63;11.82;;;7.80;99.90;;;;;;5046004;28;20069;-41
2023/10/18 08:33:19;;;;;;;16.92;11.13;;;8.00;99.90;;;;;;5043689;28;20405;-41
2023/10/18 08:35:46;;;;;;;15.77;9.60;;;8.40;99.90;;;;;;5045118;28;20037;-39
2023/10/18 08:38:14;;;;;;;17.60;11.75;;;9.50;99.90;;;;;;5040752;28;20553;-41
2023/10/18 08:40:42;;;;;;;17.65;11.02;;;9.00;99.90;;;;;;5046312;28;20053;-40
2023/10/18 08:43:44;;;;;;;14.15;10.88;;;8.80;99.90;;;;;;5043347;28;20115;-40
2023/10/18 08:46:11;;;;;;;16.30;11.82;;;8.90;99.90;;;;;;5040379;28;20160;-39
2023/10/18 08:48:42;;;;;;;15.32;11.48;;;8.80;99.90;;;;;;5040562;28;20049;-39
2023/10/18 08:51:09;;;;;;;13.23;11.15;;;8.70;99.90;;;;;;5045942;28;20373;-38
2023/10/18 08:53:41;;;;;;;14.52;10.80;;;8.90;99.90;;;;;;5049927;28;20045;-40
2023/10/18 08:56:09;;;;;;;17.05;11.55;;;9.00;99.90;;;;;;5055821;28;20102;-41
2023/10/18 08:58:37;;;;;;;15.23;10.45;;;8.90;99.90;;;;;;5055539;28;20049;-39
2023/10/18 09:01:05;;;;;;;15.10;11.02;;;9.20;99.90;;;;;;5049361;28;20060;-42
2023/10/18 09:03:35;;;;;;;18.75;10.68;;;9.30;99.90;;;;;;5046385;28;20095;-42
2023/10/18 09:06:04;;;;;;;15.07;10.77;;;9.30;99.90;;;;;;5043038;28;20064;-43
2023/10/18 09:08:38;;;;;;;14.48;10.60;;;9.50;99.90;;;;;;5045737;28;20048;-39
2023/10/18 09:11:27;;;;;;;13.98;10.82;;;9.70;99.90;;;;;;5044375;28;20481;-42
2023/10/18 09:14:07;;;;;;;14.77;11.20;;;9.90;99.90;;;;;;5044422;28;21265;-40
2023/10/18 09:16:40;;;;;;;13.32;10.85;;;10.00;99.90;;;;;;5046479;28;20565;-38
2023/10/18 09:19:09;;;;;;;16.65;10.90;;;10.20;99.90;;;;;;5043950;28;20158;-39
2023/10/18 09:24:14;;;;;;;13.40;11.13;;;10.40;99.90;;;;;;5043747;28;20085;-40
2023/10/18 09:26:44;;;;;;;16.02;10.68;;;10.50;99.90;;;;;;5050410;28;20454;-41
2023/10/18 09:29:13;;;;;;;18.38;12.70;;;10.70;99.90;;;;;;5050028;28;20041;-41
2023/10/18 09:32:01;;;;;;;14.65;11.07;;;10.80;99.90;;;;;;5052824;28;20152;-37
2023/10/18 09:34:42;;;;;;;12.27;10.23;;;11.00;99.90;;;;;;5043014;28;20104;-37
2023/10/18 09:37:13;;;;;;;13.40;11.20;;;11.10;99.90;;;;;;5050859;28;20374;-37
2023/10/18 09:39:45;;;;;;;12.60;10.47;;;11.40;99.90;;;;;;5047017;28;20062;-40
2023/10/18 09:42:15;;;;;;;13.75;10.07;;;11.60;99.90;;;;;;5049076;28;20048;-39
2023/10/18 09:44:44;;;;;;;13.00;10.55;;;11.80;99.90;;;;;;5052868;28;20060;-39
2023/10/18 09:47:13;;;;;;;12.57;9.63;;;12.00;99.90;;;;;;5041502;28;20053;-42
2023/10/18 09:49:43;;;;;;;16.35;10.57;;;12.20;99.90;;;;;;5043948;28;20040;-40
2023/10/18 09:52:13;;;;;;;14.73;10.25;;;12.40;99.90;;;;;;5047068;28;20421;-39
2023/10/18 09:54:51;;;;;;;14.55;10.90;;;12.50;99.90;;;;;;5046917;28;20053;-39
2023/10/18 09:57:23;;;;;;;11.95;10.10;;;12.70;99.90;;;;;;5046538;28;20049;-41
2023/10/18 09:59:56;;;;;;;15.48;9.68;;;12.90;99.90;;;;;;5047005;28;20045;-40
2023/10/18 10:02:25;;;;;;;11.32;9.68;;;13.10;99.90;;;;;;5044783;28;20052;-38
2023/10/18 10:05:04;;;;;;;12.68;10.25;;;13.10;99.90;;;;;;5039904;28;20052;-39
2023/10/18 10:07:41;;;;;;;11.20;9.90;;;13.40;99.90;;;;;;5039369;28;20046;-38
2023/10/18 10:10:18;;;;;;;12.98;9.98;;;13.60;99.90;;;;;;5056947;28;20093;-38
2023/10/18 10:12:47;;;;;;;13.95;10.07;;;13.70;99.90;;;;;;5052088;28;20107;-41
2023/10/18 10:15:14;;;;;;;17.02;10.35;;;14.00;99.90;;;;;;5057142;28;20049;-39
2023/10/18 10:17:55;;;;;;;20.50;14.13;;;14.10;99.90;;;;;;5062313;28;20108;-40
2023/10/18 10:20:40;;;;;;;15.47;12.23;;;14.40;99.90;;;;;;5050723;28;20121;-40
2023/10/18 10:23:15;;;;;;;12.02;10.02;;;14.50;99.90;;;;;;5047777;28;20060;-40
2023/10/18 10:26:11;;;;;;;10.13;9.10;;;14.80;99.90;;;;;;5042208;28;20108;-41
2023/10/18 10:31:53;;;;;;;10.27;9.15;;;15.40;99.90;;;;;;5044930;28;20142;-41
2023/10/18 10:34:32;;;;;;;11.05;9.00;;;15.60;99.90;;;;;;5041873;28;20148;-42
2023/10/18 10:37:16;;;;;;;10.95;8.63;;;15.70;99.90;;;;;;5047191;28;20052;-39
2023/10/18 10:39:49;;;;;;;18.35;10.60;;;15.90;99.90;;;;;;5044166;28;20130;-38
2023/10/18 10:42:43;;;;;;;10.73;9.18;;;15.70;99.90;;;;;;5044013;28;20068;-38
2023/10/18 10:45:30;;;;;;;9.00;7.82;;;15.60;99.90;;;;;;5046470;28;20513;-38
2023/10/18 10:51:37;;;;;;;9.68;8.13;;;15.50;99.90;;;;;;5045622;28;20055;-41
2023/10/18 10:54:01;;;;;;;7.95;7.15;;;15.30;99.90;;;;;;5043889;28;20068;-41
2023/10/18 10:56:31;;;;;;;7.82;7.03;;;15.60;99.90;;;;;;5049214;28;20044;-41
2023/10/18 10:59:15;;;;;;;8.48;7.35;;;15.80;99.90;;;;;;5046294;28;20032;-41
2023/10/18 11:04:28;;;;;;;9.85;7.78;;;16.40;99.90;;;;;;5049254;28;20053;-40
2023/10/18 11:07:08;;;;;;;9.05;7.70;;;16.60;99.90;;;;;;5051816;28;20044;-42
2023/10/18 11:09:39;;;;;;;8.73;7.82;;;16.70;99.90;;;;;;5053601;28;20059;-41
2023/10/18 11:12:08;;;;;;;10.85;7.82;;;16.80;99.90;;;;;;5044813;28;20464;-38
2023/10/18 11:14:36;;;;;;;9.63;7.90;;;17.10;99.90;;;;;;5045448;28;20158;-37
2023/10/18 11:19:43;;;;;;;9.43;7.93;;;17.60;99.90;;;;;;5041786;28;20045;-39
2023/10/18 11:22:15;;;;;;;8.93;8.00;;;18.10;99.90;;;;;;5038628;28;20083;-40
2023/10/18 11:24:43;;;;;;;9.65;7.90;;;18.30;99.90;;;;;;5042588;28;20045;-40
2023/10/18 11:27:10;;;;;;;9.50;7.70;;;18.40;99.90;;;;;;5043275;28;20135;-40
2023/10/18 11:29:38;;;;;;;8.82;7.93;;;18.50;99.80;;;;;;5043614;28;20418;-38
2023/10/18 11:32:07;;;;;;;8.77;7.55;;;18.60;98.90;;;;;;5040171;28;20128;-42
2023/10/18 11:34:43;;;;;;;8.70;7.80;;;18.30;98.60;;;;;;5047937;28;20374;-41
2023/10/18 11:37:13;;;;;;;11.52;9.48;;;18.50;98.70;;;;;;5048589;28;20090;-39
2023/10/18 11:39:41;;;;;;;8.23;7.38;;;18.80;98.00;;;;;;5046226;28;20113;-38
2023/10/18 11:42:10;;;;;;;7.53;6.82;;;19.00;97.10;;;;;;5049857;28;20075;-40
2023/10/18 11:44:39;;;;;;;7.63;6.93;;;18.70;97.10;;;;;;5055487;28;20163;-39
2023/10/18 11:47:12;;;;;;;7.60;6.80;;;18.60;97.30;;;;;;5051954;28;20131;-38
2023/10/18 11:49:41;;;;;;;8.77;7.13;;;18.50;97.20;;;;;;5050023;28;20044;-41
2023/10/18 11:52:16;;;;;;;11.68;6.97;;;18.70;96.90;;;;;;5045262;28;20514;-37
2023/10/18 11:54:45;;;;;;;9.48;7.30;;;19.00;96.20;;;;;;5042076;28;20090;-40
2023/10/18 11:57:29;;;;;;;7.80;7.00;;;19.10;95.40;;;;;;5047153;28;20044;-40
2023/10/18 12:02:55;;;;;;;8.18;7.32;;;19.30;94.70;;;;;;5045531;28;20083;-39
2023/10/18 12:05:23;;;;;;;8.20;6.68;;;19.10;94.90;;;;;;5046085;28;20072;-38
2023/10/18 12:07:53;;;;;;;11.07;9.88;;;19.00;94.50;;;;;;5049615;28;20049;-37
2023/10/18 12:10:55;;;;;;;9.65;8.68;;;19.00;94.60;;;;;;5050654;28;20128;-39
2023/10/18 12:13:17;;;;;;;7.97;7.18;;;18.80;94.70;;;;;;5043809;28;20053;-39
2023/10/18 12:15:44;;;;;;;7.50;6.80;;;18.80;95.10;;;;;;5051394;28;20060;-39
2023/10/18 12:18:14;;;;;;;9.02;7.38;;;18.80;94.80;;;;;;5045960;28;20048;-38
2023/10/18 12:20:45;;;;;;;8.02;6.68;;;18.90;94.50;;;;;;5047518;28;20464;-41
2023/10/18 12:23:13;;;;;;;9.38;7.18;;;18.80;94.20;;;;;;5042459;28;20049;-38
2023/10/18 12:25:43;;;;;;;8.30;7.28;;;18.80;94.60;;;;;;5043746;28;20045;-40
2023/10/18 12:31:26;;;;;;;8.27;7.18;;;18.80;94.30;;;;;;5054617;28;20049;-39
2023/10/18 12:34:00;;;;;;;8.90;6.93;;;18.70;94.40;;;;;;5049897;28;20083;-39
2023/10/18 12:36:38;;;;;;;9.63;6.32;;;18.80;94.50;;;;;;5049222;28;20091;-38
2023/10/18 12:39:09;;;;;;;7.30;6.60;;;18.70;94.20;;;;;;5051344;28;20486;-44
2023/10/18 12:41:40;;;;;;;;;;;18.80;94.10;;;;;;5044375;28;20395;-38
2023/10/18 12:44:18;;;;;;;7.03;5.80;;;18.80;94.00;;;;;;5043444;28;19928;-40
2023/10/18 12:46:46;;;;;;;9.50;6.05;;;18.90;93.40;;;;;;5049139;28;20438;-40
2023/10/18 12:49:22;;;;;;;7.07;6.38;;;19.10;92.90;;;;;;5050092;28;20117;-41
2023/10/18 12:52:00;;;;;;;6.97;6.30;;;18.90;92.80;;;;;;5049732;28;20433;-38
2023/10/18 12:54:51;;;;;;;7.10;6.40;;;19.50;92.30;;;;;;5049796;28;20053;-39
2023/10/18 12:57:20;;;;;;;7.78;6.97;;;20.00;92.20;;;;;;5044912;28;20110;-41
2023/10/18 13:05:14;;;;;;;8.80;7.57;;;20.30;90.40;;;;;;5051441;28;20045;-40
2023/10/18 13:07:45;;;;;;;9.40;7.47;;;20.30;90.50;;;;;;5047027;28;20052;-38
2023/10/18 13:10:13;;;;;;;9.18;6.53;;;20.30;90.40;;;;;;5047957;28;20532;-40
2023/10/18 13:12:53;;;;;;;9.77;7.00;;;20.90;90.10;;;;;;5048541;28;20041;-36
2023/10/18 13:15:25;;;;;;;9.65;6.97;;;21.40;89.50;;;;;;5047457;28;20149;-39
2023/10/18 13:17:53;;;;;;;9.02;6.70;;;22.60;86.50;;;;;;5042599;28;20048;-38
2023/10/18 13:20:24;;;;;;;8.23;6.75;;;22.90;84.30;;;;;;5042628;28;20045;-38
2023/10/18 13:22:55;;;;;;;7.85;7.05;;;23.10;83.40;;;;;;5042721;28;20072;-38
2023/10/18 13:25:36;;;;;;;7.67;6.90;;;22.50;84.10;;;;;;5042011;28;20049;-38
2023/10/18 13:28:05;;;;;;;9.30;7.37;;;22.40;83.90;;;;;;5044101;28;20361;-41
2023/10/18 13:30:39;;;;;;;9.35;6.55;;;21.90;84.90;;;;;;5036499;28;20861;-39
2023/10/18 13:33:14;;;;;;;7.85;7.07;;;21.60;86.10;;;;;;5046011;28;20539;-37
2023/10/18 13:35:44;;;;;;;8.70;7.78;;;21.40;86.30;;;;;;5045450;28;20088;-40
2023/10/18 13:38:15;;;;;;;10.20;7.65;;;21.20;86.80;;;;;;5048162;28;20095;-41
2023/10/18 13:40:43;;;;;;;8.80;6.97;;;20.90;86.90;;;;;;5041898;28;20076;-41
2023/10/18 13:43:13;;;;;;;8.07;7.28;;;21.10;87.60;;;;;;5042582;28;20045;-41
2023/10/18 13:45:41;;;;;;;10.38;7.55;;;21.50;85.80;;;;;;5043410;28;20144;-39
2023/10/18 13:48:11;;;;;;;9.15;8.18;;;22.20;84.80;;;;;;5041928;28;20539;-39
2023/10/18 13:50:39;;;;;;;8.85;7.75;;;22.70;83.50;;;;;;5040434;28;20045;-39
2023/10/18 13:53:12;;;;;;;8.90;7.40;;;22.90;82.50;;;;;;5047053;28;20051;-38
2023/10/18 13:55:43;;;;;;;8.93;7.50;;;22.80;81.30;;;;;;5047499;28;20041;-39
2023/10/18 13:58:11;;;;;;;10.15;7.72;;;22.60;81.30;;;;;;5046751;28;20056;-37
2023/10/18 14:00:43;;;;;;;7.85;6.75;;;23.10;80.70;;;;;;5034973;28;20489;-39
2023/10/18 14:03:13;;;;;;;7.90;7.07;;;23.20;79.70;;;;;;5037615;28;20065;-41
2023/10/18 14:05:44;;;;;;;9.43;6.95;;;23.60;78.90;;;;;;5040275;28;20052;-38
2023/10/18 14:08:18;;;;;;;8.10;7.30;;;24.10;77.10;;;;;;5041707;28;20472;-42
2023/10/18 14:10:45;;;;;;;7.47;6.78;;;24.50;75.00;;;;;;5042636;28;20116;-41
2023/10/18 14:13:14;;;;;;;7.90;7.10;;;24.60;73.20;;;;;;5045277;28;20037;-38
2023/10/18 14:15:43;;;;;;;17.70;13.93;;;24.10;74.30;;;;;;5045286;28;20048;-40
2023/10/18 14:18:11;;;;;;;8.32;6.90;;;23.50;74.10;;;;;;5040166;28;20049;-39
2023/10/18 14:20:43;;;;;;;7.82;6.88;;;23.20;75.00;;;;;;5043874;28;20095;-40
2023/10/18 14:23:11;;;;;;;7.82;6.78;;;22.90;75.80;;;;;;5044135;28;20449;-42
2023/10/18 14:25:38;;;;;;;7.30;6.53;;;23.00;75.60;;;;;;5043796;28;20151;-41
2023/10/18 14:28:05;;;;;;;8.35;6.55;;;23.10;75.10;;;;;;5051889;28;20726;-39